Time;durP1;ratioP1;P1;durP2;ratioP2;P2;SDS_P1;SDS_P2;PMS_P1;PMS_P2;Temp;Humidity;BMP_temperature;BMP_pressure;BME280_temperature;BME280_humidity;BME280_pressure;Samples;Min_cycle;Max_cycle;Signal;HPM_P1;HPM_P2
2021/12/06 00:00:27;;;;;;;21.85;7.30;;;;;;;;;;5111045;28;20702;-67
2021/12/06 00:02:55;;;;;;;12.93;4.43;;;;;;;;;;5111245;28;20218;-67
2021/12/06 00:05:24;;;;;;;28.35;9.50;;;;;;;;;;5110774;28;20211;-66
2021/12/06 00:07:51;;;;;;;33.08;9.45;;;;;;;;;;5110950;28;20207;-66
2021/12/06 00:10:19;;;;;;;21.48;6.63;;;;;;;;;;5110943;28;20321;-66
2021/12/06 00:12:47;;;;;;;26.27;6.78;;;;;;;;;;5103867;28;20230;-66
2021/12/06 00:15:15;;;;;;;32.35;9.75;;;;;;;;;;5110839;28;20234;-66
2021/12/06 00:17:43;;;;;;;34.33;8.80;;;;;;;;;;5110792;28;20639;-66
2021/12/06 00:20:12;;;;;;;33.67;10.30;;;;;;;;;;5111027;28;20242;-67
2021/12/06 00:22:39;;;;;;;41.55;23.90;;;;;;;;;;5110962;28;20565;-65
2021/12/06 00:25:09;;;;;;;30.50;17.77;;;;;;;;;;5110860;28;20294;-66
2021/12/06 00:27:39;;;;;;;40.28;18.23;;;;;;;;;;5110639;28;20207;-66
2021/12/06 00:30:11;;;;;;;23.48;16.63;;;;;;;;;;5110812;28;20733;-67
2021/12/06 00:32:38;;;;;;;36.05;20.90;;;;;;;;;;5110722;28;20203;-66
2021/12/06 00:35:06;;;;;;;30.52;16.00;;;;;;;;;;5110851;28;20735;-67
2021/12/06 00:37:42;;;;;;;52.40;16.75;;;;;;;;;;5110545;28;20207;-66
2021/12/06 00:40:11;;;;;;;78.68;18.70;;;;;;;;;;5104679;28;20245;-66
2021/12/06 00:42:39;;;;;;;53.17;18.50;;;;;;;;;;5110982;28;20248;-66
2021/12/06 00:45:09;;;;;;;43.22;20.77;;;;;;;;;;5110715;28;20218;-66
2021/12/06 00:47:36;;;;;;;79.30;33.40;;;;;;;;;;5110824;28;20211;-66
2021/12/06 00:50:04;;;;;;;70.00;28.83;;;;;;;;;;5110486;28;20707;-65
2021/12/06 00:52:32;;;;;;;26.02;9.65;;;;;;;;;;5110146;28;20238;-66
2021/12/06 00:54:59;;;;;;;30.63;8.40;;;;;;;;;;5110815;28;20257;-66
2021/12/06 00:57:27;;;;;;;64.72;19.52;;;;;;;;;;5112511;28;20210;-66
2021/12/06 00:59:54;;;;;;;30.58;14.27;;;;;;;;;;5114459;28;20203;-66
2021/12/06 01:02:23;;;;;;;46.72;12.13;;;;;;;;;;5114083;28;20207;-66
2021/12/06 01:04:51;;;;;;;21.90;7.38;;;;;;;;;;5114211;28;20592;-67
2021/12/06 01:07:19;;;;;;;29.40;9.27;;;;;;;;;;5113936;28;20211;-66
2021/12/06 01:09:47;;;;;;;50.50;12.18;;;;;;;;;;5113965;28;20345;-67
2021/12/06 01:12:14;;;;;;;31.73;7.50;;;;;;;;;;5114027;28;20264;-65
2021/12/06 01:14:42;;;;;;;27.42;7.80;;;;;;;;;;5114002;28;20248;-66
2021/12/06 01:17:09;;;;;;;25.48;5.45;;;;;;;;;;5113984;28;20203;-66
2021/12/06 01:19:38;;;;;;;72.60;15.15;;;;;;;;;;5113733;28;20233;-66
2021/12/06 01:22:18;;;;;;;31.05;8.07;;;;;;;;;;5113653;28;20211;-67
2021/12/06 01:24:52;;;;;;;40.53;9.32;;;;;;;;;;5113857;28;20218;-67
2021/12/06 01:27:43;;;;;;;48.63;12.05;;;;;;;;;;5113390;28;20303;-66
2021/12/06 01:30:29;;;;;;;23.17;6.32;;;;;;;;;;5113511;28;20235;-65
2021/12/06 01:33:29;;;;;;;27.48;16.92;;;;;;;;;;5113731;27;20199;-66
2021/12/06 01:41:26;;;;;;;38.20;18.67;;;;;;;;;;5113346;28;20643;-67
2021/12/06 01:44:04;;;;;;;53.38;15.55;;;;;;;;;;5113428;28;20243;-66
2021/12/06 01:46:32;;;;;;;24.08;6.07;;;;;;;;;;5113222;28;20218;-66
2021/12/06 01:49:00;;;;;;;70.40;8.30;;;;;;;;;;5113267;28;20226;-66
2021/12/06 01:51:29;;;;;;;46.28;9.38;;;;;;;;;;5113195;28;20277;-66
2021/12/06 01:53:56;;;;;;;39.05;8.82;;;;;;;;;;5113141;28;20231;-66
2021/12/06 01:56:24;;;;;;;24.20;7.82;;;;;;;;;;5113085;28;20203;-66
2021/12/06 01:58:51;;;;;;;24.55;7.47;;;;;;;;;;5112976;28;20221;-67
2021/12/06 02:01:19;;;;;;;78.45;9.90;;;;;;;;;;5112665;28;20203;-66
2021/12/06 02:03:46;;;;;;;37.33;9.90;;;;;;;;;;5113390;28;20688;-66
2021/12/06 02:06:13;;;;;;;31.55;15.43;;;;;;;;;;5113004;28;20628;-66
2021/12/06 02:08:42;;;;;;;26.92;4.95;;;;;;;;;;5112677;28;20203;-68
2021/12/06 02:11:10;;;;;;;52.90;16.88;;;;;;;;;;5112738;28;20238;-65
2021/12/06 02:13:44;;;;;;;136.18;39.25;;;;;;;;;;5112489;28;20230;-66
2021/12/06 02:16:12;;;;;;;34.33;9.70;;;;;;;;;;5112663;28;20292;-66
2021/12/06 02:18:45;;;;;;;62.08;13.05;;;;;;;;;;5112596;28;20668;-66
2021/12/06 02:21:23;;;;;;;34.13;8.27;;;;;;;;;;5112607;28;20243;-66
2021/12/06 02:23:51;;;;;;;42.28;8.60;;;;;;;;;;5112909;28;20203;-67
2021/12/06 02:26:19;;;;;;;33.45;8.30;;;;;;;;;;5112611;28;20696;-66
2021/12/06 02:28:47;;;;;;;56.40;12.20;;;;;;;;;;5112407;28;20739;-68
2021/12/06 02:31:15;;;;;;;113.03;16.58;;;;;;;;;;5105595;28;20235;-66
2021/12/06 02:33:45;;;;;;;88.85;14.18;;;;;;;;;;5112661;28;20647;-67
2021/12/06 02:36:12;;;;;;;82.55;12.38;;;;;;;;;;5112244;28;20683;-66
2021/12/06 02:38:41;;;;;;;22.80;7.65;;;;;;;;;;5112163;28;20211;-67
2021/12/06 02:41:09;;;;;;;58.53;13.02;;;;;;;;;;5112149;28;20207;-66
2021/12/06 02:43:37;;;;;;;58.70;17.35;;;;;;;;;;5112129;28;20683;-67
2021/12/06 02:46:05;;;;;;;48.17;11.68;;;;;;;;;;5112063;28;20295;-69
2021/12/06 02:48:33;;;;;;;52.00;28.25;;;;;;;;;;5112110;28;20199;-67
2021/12/06 02:51:02;;;;;;;30.88;9.32;;;;;;;;;;5112045;28;20231;-66
2021/12/06 02:53:30;;;;;;;39.30;12.38;;;;;;;;;;5105025;28;20234;-66
2021/12/06 02:56:04;;;;;;;36.22;12.60;;;;;;;;;;5111892;28;20214;-66
2021/12/06 02:58:55;;;;;;;32.88;7.28;;;;;;;;;;5111929;28;20609;-68
2021/12/06 03:01:24;;;;;;;29.25;11.27;;;;;;;;;;5111573;28;20212;-66
2021/12/06 03:03:51;;;;;;;44.83;13.70;;;;;;;;;;5111742;28;20213;-67
2021/12/06 03:06:19;;;;;;;61.83;16.85;;;;;;;;;;5112245;28;20238;-66
2021/12/06 03:08:48;;;;;;;39.45;11.98;;;;;;;;;;5112163;28;20234;-67
2021/12/06 03:11:18;;;;;;;62.60;10.38;;;;;;;;;;5111666;28;20227;-66
2021/12/06 03:13:45;;;;;;;87.25;38.15;;;;;;;;;;5111464;28;20700;-66
2021/12/06 03:16:13;;;;;;;55.58;19.65;;;;;;;;;;5111420;28;20206;-66
2021/12/06 03:18:43;;;;;;;65.60;30.98;;;;;;;;;;5111438;28;20199;-66
2021/12/06 03:21:11;;;;;;;41.35;13.38;;;;;;;;;;5111308;28;20215;-66
2021/12/06 03:23:38;;;;;;;39.70;12.05;;;;;;;;;;5111391;28;20227;-66
2021/12/06 03:26:06;;;;;;;44.13;11.63;;;;;;;;;;5111434;28;20888;-66
2021/12/06 03:28:38;;;;;;;36.85;10.57;;;;;;;;;;5111410;28;20693;-66
2021/12/06 03:31:06;;;;;;;40.90;8.95;;;;;;;;;;5111205;28;20322;-66
2021/12/06 03:33:35;;;;;;;63.17;13.55;;;;;;;;;;5111332;28;20215;-65
2021/12/06 03:36:03;;;;;;;116.57;14.95;;;;;;;;;;5111445;28;20211;-66
2021/12/06 03:38:30;;;;;;;67.03;16.23;;;;;;;;;;5111265;28;20668;-66
2021/12/06 03:40:58;;;;;;;70.35;16.35;;;;;;;;;;5111221;28;20246;-66
2021/12/06 03:43:25;;;;;;;125.95;14.25;;;;;;;;;;5110786;28;20286;-65
2021/12/06 03:45:54;;;;;;;67.70;9.30;;;;;;;;;;5111125;28;20210;-66
2021/12/06 03:48:21;;;;;;;50.72;13.00;;;;;;;;;;5111081;28;20214;-66
2021/12/06 03:50:49;;;;;;;73.30;12.23;;;;;;;;;;5111151;28;20230;-66
2021/12/06 03:53:17;;;;;;;61.13;13.18;;;;;;;;;;5110995;28;20265;-65
2021/12/06 03:55:44;;;;;;;61.25;15.57;;;;;;;;;;5110885;28;20212;-67
2021/12/06 03:58:12;;;;;;;95.78;12.40;;;;;;;;;;5110766;28;20222;-66
2021/12/06 04:00:40;;;;;;;115.28;21.10;;;;;;;;;;5111106;28;20234;-66
2021/12/06 04:03:11;;;;;;;61.55;15.90;;;;;;;;;;5111167;28;20226;-66
2021/12/06 04:05:38;;;;;;;57.78;25.90;;;;;;;;;;5110733;28;20210;-66
2021/12/06 04:08:06;;;;;;;59.20;23.20;;;;;;;;;;5110757;28;20668;-66
2021/12/06 04:10:34;;;;;;;43.05;9.05;;;;;;;;;;5110598;28;20237;-67
2021/12/06 04:13:02;;;;;;;22.80;8.80;;;;;;;;;;5110760;28;20227;-67
2021/12/06 04:15:29;;;;;;;36.08;17.83;;;;;;;;;;5110547;28;20214;-65
2021/12/06 04:17:57;;;;;;;73.00;32.92;;;;;;;;;;5110643;28;20207;-66
2021/12/06 04:20:26;;;;;;;32.75;10.90;;;;;;;;;;5110821;28;20708;-65
2021/12/06 04:22:54;;;;;;;40.08;11.15;;;;;;;;;;5110564;28;20199;-66
2021/12/06 04:25:21;;;;;;;31.85;13.57;;;;;;;;;;5110712;28;20203;-66
2021/12/06 04:27:54;;;;;;;24.70;8.18;;;;;;;;;;5110924;28;20238;-65
2021/12/06 04:30:22;;;;;;;41.63;8.13;;;;;;;;;;5111494;28;20302;-67
2021/12/06 04:32:50;;;;;;;30.17;7.65;;;;;;;;;;5114672;28;20589;-66
2021/12/06 04:35:17;;;;;;;32.80;10.15;;;;;;;;;;5114419;28;20243;-67
2021/12/06 04:37:46;;;;;;;24.83;7.70;;;;;;;;;;5114659;28;20214;-66
2021/12/06 04:40:15;;;;;;;28.88;9.20;;;;;;;;;;5114888;28;20203;-66
2021/12/06 04:42:43;;;;;;;55.67;12.32;;;;;;;;;;5114615;28;20203;-67
2021/12/06 04:45:11;;;;;;;70.38;15.38;;;;;;;;;;5114375;28;20199;-66
2021/12/06 04:47:39;;;;;;;34.13;9.80;;;;;;;;;;5114327;28;20195;-66
2021/12/06 04:50:08;;;;;;;32.03;9.73;;;;;;;;;;5114326;28;20207;-67
2021/12/06 04:52:35;;;;;;;37.17;8.43;;;;;;;;;;5114100;28;20615;-65
2021/12/06 04:55:08;;;;;;;58.72;10.73;;;;;;;;;;5114564;28;20207;-66
2021/12/06 04:57:41;;;;;;;23.08;5.70;;;;;;;;;;5114326;28;20218;-67
2021/12/06 05:00:11;;;;;;;26.70;6.15;;;;;;;;;;5114361;28;20594;-65
2021/12/06 05:02:39;;;;;;;61.05;8.55;;;;;;;;;;5107762;28;20229;-65
2021/12/06 05:05:09;;;;;;;87.35;14.98;;;;;;;;;;5114007;28;20668;-66
2021/12/06 05:07:39;;;;;;;59.28;8.48;;;;;;;;;;5114198;28;20221;-66
2021/12/06 05:10:09;;;;;;;174.77;23.45;;;;;;;;;;5113880;28;21019;-66
2021/12/06 05:12:37;;;;;;;84.10;13.43;;;;;;;;;;5113853;28;20246;-66
2021/12/06 05:15:05;;;;;;;71.75;11.45;;;;;;;;;;5113691;28;20604;-66
2021/12/06 05:17:33;;;;;;;34.83;12.70;;;;;;;;;;5113802;28;20221;-66
2021/12/06 05:20:00;;;;;;;40.80;11.10;;;;;;;;;;5113823;28;20211;-66
2021/12/06 05:22:28;;;;;;;55.92;9.25;;;;;;;;;;5113767;28;20206;-66
2021/12/06 05:24:55;;;;;;;45.42;10.98;;;;;;;;;;5113669;28;20203;-65
2021/12/06 05:27:28;;;;;;;107.60;18.13;;;;;;;;;;5113757;28;20642;-67
2021/12/06 05:30:01;;;;;;;34.38;7.57;;;;;;;;;;5113943;28;20268;-66
2021/12/06 05:32:31;;;;;;;40.08;9.90;;;;;;;;;;5113548;28;20230;-65
2021/12/06 05:35:03;;;;;;;34.88;8.68;;;;;;;;;;5113514;28;20207;-66
2021/12/06 05:37:32;;;;;;;37.10;12.27;;;;;;;;;;5113298;28;20256;-65
2021/12/06 05:39:59;;;;;;;31.52;10.20;;;;;;;;;;5113379;28;20207;-66
2021/12/06 05:42:28;;;;;;;38.75;8.57;;;;;;;;;;5113055;28;20695;-66
2021/12/06 05:44:55;;;;;;;33.35;9.85;;;;;;;;;;5113265;28;20211;-66
2021/12/06 05:47:23;;;;;;;38.17;12.07;;;;;;;;;;5112938;28;20208;-66
2021/12/06 05:49:50;;;;;;;43.00;9.70;;;;;;;;;;5113145;28;20209;-65
2021/12/06 05:52:18;;;;;;;33.42;9.82;;;;;;;;;;5113102;28;20712;-66
2021/12/06 05:54:45;;;;;;;35.55;11.70;;;;;;;;;;5112853;28;20235;-65
2021/12/06 05:57:14;;;;;;;26.40;7.65;;;;;;;;;;5113070;28;20208;-66
2021/12/06 05:59:44;;;;;;;25.30;6.15;;;;;;;;;;5112982;28;20211;-67
2021/12/06 06:02:12;;;;;;;39.70;9.95;;;;;;;;;;5113197;28;20265;-67
2021/12/06 06:04:39;;;;;;;19.73;5.85;;;;;;;;;;5112922;28;20263;-66
2021/12/06 06:07:07;;;;;;;43.35;8.38;;;;;;;;;;5113067;28;20268;-66
2021/12/06 06:09:35;;;;;;;22.38;6.13;;;;;;;;;;5113010;28;20238;-65
2021/12/06 06:12:04;;;;;;;50.30;9.57;;;;;;;;;;5112916;28;20226;-66
2021/12/06 06:14:31;;;;;;;23.05;7.10;;;;;;;;;;5113204;28;20263;-67
2021/12/06 06:17:08;;;;;;;22.50;7.15;;;;;;;;;;5112751;28;20687;-66
2021/12/06 06:19:35;;;;;;;30.08;10.25;;;;;;;;;;5112476;28;20214;-66
2021/12/06 06:22:03;;;;;;;27.45;7.97;;;;;;;;;;5112798;28;20203;-65
2021/12/06 06:24:30;;;;;;;37.22;8.60;;;;;;;;;;5112642;28;20209;-66
2021/12/06 06:26:58;;;;;;;29.20;8.35;;;;;;;;;;5112539;28;20207;-66
2021/12/06 06:29:25;;;;;;;28.58;8.65;;;;;;;;;;5112163;28;20215;-66
2021/12/06 06:31:53;;;;;;;27.85;8.05;;;;;;;;;;5112380;28;20227;-66
2021/12/06 06:34:22;;;;;;;27.55;9.18;;;;;;;;;;5112236;28;20238;-65
2021/12/06 06:36:49;;;;;;;16.38;4.32;;;;;;;;;;5112306;28;20207;-65
2021/12/06 06:39:19;;;;;;;26.70;8.48;;;;;;;;;;5112288;28;20210;-67
2021/12/06 06:41:47;;;;;;;24.50;7.53;;;;;;;;;;5112380;28;20298;-67
2021/12/06 06:44:15;;;;;;;26.02;9.23;;;;;;;;;;5112153;28;20202;-65
2021/12/06 06:46:43;;;;;;;29.75;10.60;;;;;;;;;;5112263;28;20271;-66
2021/12/06 06:49:10;;;;;;;29.48;7.60;;;;;;;;;;5112228;28;20222;-65
2021/12/06 06:51:39;;;;;;;23.35;7.32;;;;;;;;;;5111742;28;20237;-66
2021/12/06 06:54:07;;;;;;;22.20;7.50;;;;;;;;;;5110910;28;20735;-66
2021/12/06 06:56:35;;;;;;;34.05;8.25;;;;;;;;;;5112035;28;20759;-65
2021/12/06 06:59:02;;;;;;;31.80;8.23;;;;;;;;;;5111806;28;20210;-66
2021/12/06 07:01:29;;;;;;;56.63;11.27;;;;;;;;;;5111589;28;20207;-66
2021/12/06 07:03:57;;;;;;;23.45;7.55;;;;;;;;;;5112224;28;20238;-66
2021/12/06 07:06:25;;;;;;;22.42;6.45;;;;;;;;;;5111773;28;20199;-66
2021/12/06 07:08:54;;;;;;;19.10;7.30;;;;;;;;;;5111688;28;20203;-69
2021/12/06 07:11:22;;;;;;;27.25;9.43;;;;;;;;;;5111352;28;20241;-66
2021/12/06 07:13:49;;;;;;;28.90;10.00;;;;;;;;;;5111677;28;20233;-65
2021/12/06 07:16:17;;;;;;;34.85;10.32;;;;;;;;;;5111497;28;20690;-68
2021/12/06 07:18:45;;;;;;;32.97;11.18;;;;;;;;;;5111836;28;20333;-66
2021/12/06 07:21:13;;;;;;;28.52;9.80;;;;;;;;;;5111585;28;20230;-67
2021/12/06 07:23:41;;;;;;;31.35;12.18;;;;;;;;;;5104297;28;20207;-66
2021/12/06 07:26:10;;;;;;;23.92;8.35;;;;;;;;;;5111290;28;20668;-66
2021/12/06 07:28:38;;;;;;;29.15;9.25;;;;;;;;;;5111560;28;20221;-66
2021/12/06 07:31:06;;;;;;;25.88;7.57;;;;;;;;;;5111313;28;20585;-67
2021/12/06 07:33:34;;;;;;;36.10;12.85;;;;;;;;;;5111169;28;20222;-66
2021/12/06 07:36:01;;;;;;;30.02;9.93;;;;;;;;;;5111323;28;20224;-66
2021/12/06 07:38:29;;;;;;;24.60;7.93;;;;;;;;;;5111143;28;20207;-66
2021/12/06 07:40:57;;;;;;;28.58;9.95;;;;;;;;;;5111162;28;20210;-68
2021/12/06 07:43:26;;;;;;;30.42;9.32;;;;;;;;;;5111465;28;20674;-66
2021/12/06 07:45:53;;;;;;;22.83;7.15;;;;;;;;;;5111134;28;20207;-67
2021/12/06 07:48:21;;;;;;;25.95;7.13;;;;;;;;;;5111268;28;20242;-66
2021/12/06 07:50:48;;;;;;;22.60;7.15;;;;;;;;;;5111249;28;20230;-66
2021/12/06 07:53:16;;;;;;;22.75;6.40;;;;;;;;;;5110856;28;20247;-65
2021/12/06 07:55:44;;;;;;;24.70;8.40;;;;;;;;;;5111298;28;20215;-67
2021/12/06 07:58:11;;;;;;;34.58;10.68;;;;;;;;;;5111128;28;20587;-66
2021/12/06 08:00:42;;;;;;;31.88;9.13;;;;;;;;;;5111427;28;20679;-67
2021/12/06 08:03:09;;;;;;;26.65;8.02;;;;;;;;;;5111252;28;20211;-68
2021/12/06 08:05:38;;;;;;;21.75;6.47;;;;;;;;;;5103650;28;20873;-68
2021/12/06 08:08:07;;;;;;;21.90;6.70;;;;;;;;;;5110736;28;20217;-67
2021/12/06 08:10:35;;;;;;;25.63;8.35;;;;;;;;;;5110978;28;20207;-67
2021/12/06 08:13:03;;;;;;;21.83;7.18;;;;;;;;;;5110892;28;20262;-67
2021/12/06 08:15:30;;;;;;;33.80;12.23;;;;;;;;;;5110527;28;20668;-67
2021/12/06 08:17:59;;;;;;;27.77;10.50;;;;;;;;;;5110724;28;20199;-67
2021/12/06 08:20:27;;;;;;;21.77;7.25;;;;;;;;;;5110605;28;20625;-68
2021/12/06 08:22:55;;;;;;;30.25;9.00;;;;;;;;;;5110998;28;20234;-67
2021/12/06 08:25:23;;;;;;;22.67;7.60;;;;;;;;;;5110580;28;20207;-68
2021/12/06 08:27:50;;;;;;;22.45;6.97;;;;;;;;;;5104008;28;20584;-66
2021/12/06 08:30:22;;;;;;;31.15;10.07;;;;;;;;;;5110558;28;20215;-67
2021/12/06 08:32:49;;;;;;;20.65;8.52;;;;;;;;;;5110749;28;20231;-66
2021/12/06 08:35:19;;;;;;;23.27;6.70;;;;;;;;;;5110880;28;20598;-68
2021/12/06 08:37:46;;;;;;;30.65;9.15;;;;;;;;;;5110926;28;20207;-66
2021/12/06 08:40:14;;;;;;;21.58;5.97;;;;;;;;;;5110509;28;20195;-66
2021/12/06 08:42:42;;;;;;;38.05;12.00;;;;;;;;;;5110552;28;20215;-68
2021/12/06 08:45:10;;;;;;;31.58;9.93;;;;;;;;;;5110847;28;20227;-66
2021/12/06 08:47:38;;;;;;;26.00;7.80;;;;;;;;;;5110229;28;20218;-67
2021/12/06 08:50:07;;;;;;;26.73;9.45;;;;;;;;;;5110879;28;20648;-66
2021/12/06 08:52:36;;;;;;;28.45;9.55;;;;;;;;;;5110114;28;20680;-67
2021/12/06 08:55:04;;;;;;;22.58;8.80;;;;;;;;;;5110617;28;20726;-67
2021/12/06 08:57:31;;;;;;;41.67;15.10;;;;;;;;;;5110268;28;20911;-66
2021/12/06 08:59:59;;;;;;;28.30;7.00;;;;;;;;;;5110413;28;20203;-66
2021/12/06 09:02:26;;;;;;;32.75;10.65;;;;;;;;;;5110438;28;20207;-66
2021/12/06 09:04:54;;;;;;;29.05;11.00;;;;;;;;;;5110331;28;20609;-67
2021/12/06 09:07:23;;;;;;;40.72;13.73;;;;;;;;;;5110195;28;20203;-66
2021/12/06 09:09:55;;;;;;;25.13;9.27;;;;;;;;;;5110312;28;20299;-66
2021/12/06 09:12:25;;;;;;;31.90;10.25;;;;;;;;;;5104213;28;20237;-66
2021/12/06 09:14:52;;;;;;;27.85;10.70;;;;;;;;;;5110646;28;20561;-66
2021/12/06 09:17:20;;;;;;;35.47;11.65;;;;;;;;;;5110769;28;20207;-66
2021/12/06 09:19:47;;;;;;;32.03;17.90;;;;;;;;;;5113857;28;20203;-68
2021/12/06 09:22:15;;;;;;;47.70;28.33;;;;;;;;;;5113966;28;20203;-67
2021/12/06 09:24:42;;;;;;;31.48;11.10;;;;;;;;;;5113949;28;20230;-67
2021/12/06 09:27:11;;;;;;;29.60;9.82;;;;;;;;;;5113728;28;20771;-66
2021/12/06 09:29:39;;;;;;;30.52;11.38;;;;;;;;;;5113571;28;20454;-67
2021/12/06 09:32:08;;;;;;;34.10;12.10;;;;;;;;;;5113674;28;20314;-67
2021/12/06 09:34:37;;;;;;;27.75;9.75;;;;;;;;;;5113818;28;20207;-67
2021/12/06 09:37:05;;;;;;;29.27;15.05;;;;;;;;;;5106585;28;20203;-67
2021/12/06 09:39:32;;;;;;;48.97;29.33;;;;;;;;;;5113351;28;20652;-67
2021/12/06 09:42:01;;;;;;;28.83;12.00;;;;;;;;;;5113647;28;20212;-67
2021/12/06 09:44:30;;;;;;;28.38;10.23;;;;;;;;;;5113598;28;20280;-67
2021/12/06 09:46:57;;;;;;;30.20;12.25;;;;;;;;;;5113315;28;20294;-67
2021/12/06 09:49:25;;;;;;;25.77;8.65;;;;;;;;;;5112980;28;20199;-67
2021/12/06 09:51:54;;;;;;;26.90;11.75;;;;;;;;;;5113449;28;20200;-67
2021/12/06 09:54:22;;;;;;;22.75;6.82;;;;;;;;;;5113318;28;20227;-67
2021/12/06 09:56:50;;;;;;;25.13;9.05;;;;;;;;;;5113358;28;20210;-66
2021/12/06 09:59:19;;;;;;;28.88;9.40;;;;;;;;;;5113051;28;20216;-67
2021/12/06 10:01:50;;;;;;;33.00;13.05;;;;;;;;;;5113211;28;20303;-67
2021/12/06 10:04:18;;;;;;;39.88;12.63;;;;;;;;;;5113070;28;20246;-67
2021/12/06 10:06:47;;;;;;;35.97;12.52;;;;;;;;;;5112795;28;20736;-67
2021/12/06 10:09:15;;;;;;;37.30;12.52;;;;;;;;;;5112852;28;20658;-67
2021/12/06 10:11:43;;;;;;;26.30;10.10;;;;;;;;;;5112793;28;20212;-67
2021/12/06 10:14:10;;;;;;;28.08;10.25;;;;;;;;;;5112722;28;20245;-66
2021/12/06 10:16:38;;;;;;;29.55;11.43;;;;;;;;;;5112687;28;20213;-67
2021/12/06 10:19:07;;;;;;;35.35;18.83;;;;;;;;;;5112869;28;20237;-67
2021/12/06 10:21:36;;;;;;;43.22;24.25;;;;;;;;;;5105848;28;20205;-66
2021/12/06 10:24:03;;;;;;;30.92;13.30;;;;;;;;;;5112531;28;20211;-67
2021/12/06 10:26:32;;;;;;;33.67;14.25;;;;;;;;;;5113114;28;20243;-66
2021/12/06 10:29:00;;;;;;;33.55;10.98;;;;;;;;;;5112430;28;20240;-66
2021/12/06 10:31:29;;;;;;;34.58;11.45;;;;;;;;;;5112223;28;20222;-66
2021/12/06 10:33:57;;;;;;;32.30;12.27;;;;;;;;;;5112253;28;20232;-66
2021/12/06 10:36:26;;;;;;;27.55;8.57;;;;;;;;;;5112210;28;20677;-67
2021/12/06 10:38:55;;;;;;;31.80;10.73;;;;;;;;;;5112452;28;20570;-68
2021/12/06 10:41:25;;;;;;;35.60;10.73;;;;;;;;;;5111926;28;20299;-67
2021/12/06 10:43:54;;;;;;;31.30;15.63;;;;;;;;;;5112294;28;20262;-67
2021/12/06 10:46:22;;;;;;;42.70;24.23;;;;;;;;;;5112119;28;20223;-66
2021/12/06 10:48:50;;;;;;;21.08;8.27;;;;;;;;;;5112377;28;20235;-66
2021/12/06 10:51:18;;;;;;;33.58;13.48;;;;;;;;;;5111855;28;20213;-71
2021/12/06 10:53:52;;;;;;;34.78;11.68;;;;;;;;;;5111708;28;20247;-66
2021/12/06 10:56:22;;;;;;;34.63;11.75;;;;;;;;;;5111964;28;20199;-66
2021/12/06 10:58:50;;;;;;;27.38;10.00;;;;;;;;;;5111777;28;20709;-66
2021/12/06 11:01:18;;;;;;;32.15;11.40;;;;;;;;;;5111750;28;20673;-68
2021/12/06 11:03:47;;;;;;;29.65;11.40;;;;;;;;;;5111732;28;20209;-66
2021/12/06 11:06:19;;;;;;;30.15;9.57;;;;;;;;;;5111889;28;20207;-66
2021/12/06 11:08:48;;;;;;;31.33;10.30;;;;;;;;;;5111747;28;20201;-66
2021/12/06 11:11:16;;;;;;;25.60;8.77;;;;;;;;;;5111675;28;20242;-66
2021/12/06 11:13:45;;;;;;;31.30;10.68;;;;;;;;;;5111584;28;20322;-67
2021/12/06 11:16:17;;;;;;;27.40;9.85;;;;;;;;;;5111515;28;20294;-67
2021/12/06 11:18:46;;;;;;;33.72;11.40;;;;;;;;;;5111738;27;20203;-65
2021/12/06 11:21:31;;;;;;;36.85;9.63;;;;;;;;;;5111542;28;20213;-66
2021/12/06 11:24:05;;;;;;;33.20;11.40;;;;;;;;;;5104469;28;20220;-66
2021/12/06 11:26:33;;;;;;;26.15;8.85;;;;;;;;;;5104273;28;20214;-67
2021/12/06 11:29:05;;;;;;;31.50;10.23;;;;;;;;;;5111268;28;20206;-66
2021/12/06 11:31:32;;;;;;;37.20;11.68;;;;;;;;;;5111080;28;20205;-67
2021/12/06 11:34:01;;;;;;;31.95;11.35;;;;;;;;;;5111255;28;20619;-67
2021/12/06 11:36:30;;;;;;;33.50;12.85;;;;;;;;;;5111405;28;20209;-67
2021/12/06 11:38:59;;;;;;;40.45;12.55;;;;;;;;;;5111356;28;20213;-67
2021/12/06 11:41:29;;;;;;;40.00;14.20;;;;;;;;;;5110583;28;20208;-66
2021/12/06 11:43:57;;;;;;;34.53;13.07;;;;;;;;;;5111561;28;20759;-66
2021/12/06 11:46:29;;;;;;;28.00;9.90;;;;;;;;;;5111165;28;20625;-66
2021/12/06 11:48:56;;;;;;;27.70;9.63;;;;;;;;;;5110965;28;20204;-67
2021/12/06 11:51:25;;;;;;;33.13;11.35;;;;;;;;;;5110804;28;20206;-67
2021/12/06 11:53:54;;;;;;;28.30;9.85;;;;;;;;;;5110754;28;20242;-70
2021/12/06 11:56:23;;;;;;;34.22;12.20;;;;;;;;;;5110917;28;20215;-67
2021/12/06 11:58:53;;;;;;;27.13;10.57;;;;;;;;;;5110898;28;20204;-66
2021/12/06 12:01:24;;;;;;;58.13;34.20;;;;;;;;;;5110551;28;20204;-67
2021/12/06 12:03:54;;;;;;;31.10;10.95;;;;;;;;;;5111184;28;20205;-66
2021/12/06 12:06:23;;;;;;;33.92;12.43;;;;;;;;;;5110970;28;20291;-66
2021/12/06 12:08:50;;;;;;;48.42;13.43;;;;;;;;;;5110783;28;20205;-67
2021/12/06 12:11:17;;;;;;;37.72;13.50;;;;;;;;;;5110861;28;20303;-68
2021/12/06 12:13:45;;;;;;;42.55;15.55;;;;;;;;;;5110520;28;20241;-67
2021/12/06 12:16:14;;;;;;;47.58;27.17;;;;;;;;;;5110770;28;20215;-68
2021/12/06 12:18:42;;;;;;;66.57;36.17;;;;;;;;;;5103591;28;20683;-66
2021/12/06 12:21:10;;;;;;;41.15;16.55;;;;;;;;;;5110790;28;20296;-67
2021/12/06 12:23:38;;;;;;;40.95;15.38;;;;;;;;;;5110800;28;20521;-67
2021/12/06 12:26:11;;;;;;;36.22;13.18;;;;;;;;;;5110672;28;20666;-67
2021/12/06 12:28:48;;;;;;;38.45;12.82;;;;;;;;;;5110663;28;20295;-66
2021/12/06 12:31:18;;;;;;;41.05;10.70;;;;;;;;;;5111030;28;20300;-66
2021/12/06 12:33:47;;;;;;;36.85;11.25;;;;;;;;;;5110665;28;20230;-66
2021/12/06 12:36:16;;;;;;;28.52;11.20;;;;;;;;;;5110712;28;20200;-66
2021/12/06 12:38:45;;;;;;;38.20;13.55;;;;;;;;;;5110389;28;20208;-67
2021/12/06 12:41:13;;;;;;;43.55;25.13;;;;;;;;;;5110475;28;20685;-67
2021/12/06 12:43:42;;;;;;;57.85;32.90;;;;;;;;;;5110428;28;20209;-67
2021/12/06 12:46:11;;;;;;;89.03;35.50;;;;;;;;;;5110676;28;20707;-66
2021/12/06 12:48:51;;;;;;;152.45;63.58;;;;;;;;;;5110529;28;20213;-67
2021/12/06 12:51:20;;;;;;;60.90;32.38;;;;;;;;;;5110118;28;20219;-68
2021/12/06 12:54:05;;;;;;;52.40;29.45;;;;;;;;;;5113428;28;20787;-66
2021/12/06 12:56:33;;;;;;;63.15;35.88;;;;;;;;;;5114441;28;20200;-66
2021/12/06 12:59:17;;;;;;;141.80;52.67;;;;;;;;;;5114214;28;20714;-67
2021/12/06 13:01:46;;;;;;;64.13;35.38;;;;;;;;;;5109566;28;20208;-67
2021/12/06 13:04:15;;;;;;;71.53;36.38;;;;;;;;;;5114338;28;20215;-67
2021/12/06 13:06:42;;;;;;;52.10;31.38;;;;;;;;;;5114413;28;20200;-67
2021/12/06 13:09:27;;;;;;;41.25;19.45;;;;;;;;;;5107248;28;20647;-66
2021/12/06 13:12:02;;;;;;;42.28;23.00;;;;;;;;;;5114127;28;20205;-67
2021/12/06 13:14:31;;;;;;;44.17;25.45;;;;;;;;;;5113744;28;20288;-66
2021/12/06 13:17:02;;;;;;;44.30;26.88;;;;;;;;;;5114089;28;20211;-68
2021/12/06 13:19:40;;;;;;;48.47;27.05;;;;;;;;;;5114152;28;20199;-66
2021/12/06 13:22:11;;;;;;;52.50;30.65;;;;;;;;;;5114107;28;20213;-67
2021/12/06 13:24:47;;;;;;;61.25;35.28;;;;;;;;;;5113806;28;20203;-66
2021/12/06 13:27:23;;;;;;;40.00;13.10;;;;;;;;;;5113694;28;20688;-68
2021/12/06 13:29:51;;;;;;;32.80;9.88;;;;;;;;;;5113929;28;20205;-66
2021/12/06 13:32:33;;;;;;;33.88;10.95;;;;;;;;;;5113612;28;20212;-67
2021/12/06 13:38:11;;;;;;;38.15;13.43;;;;;;;;;;5131893;27;20326;-67
2021/12/06 13:40:41;;;;;;;37.67;12.95;;;;;;;;;;5128770;28;20214;-67
2021/12/06 13:43:10;;;;;;;30.50;10.35;;;;;;;;;;5128939;28;20280;-66
2021/12/06 13:45:39;;;;;;;32.13;11.68;;;;;;;;;;5128404;28;20204;-66
2021/12/06 13:48:11;;;;;;;33.47;12.35;;;;;;;;;;5128848;28;20265;-66
2021/12/06 13:50:38;;;;;;;33.75;11.90;;;;;;;;;;5128833;28;20241;-67
2021/12/06 13:53:05;;;;;;;45.08;13.98;;;;;;;;;;5128694;28;20210;-67
2021/12/06 13:55:37;;;;;;;44.00;12.90;;;;;;;;;;5128486;28;20777;-68
2021/12/06 13:58:06;;;;;;;35.80;12.93;;;;;;;;;;5128376;28;20208;-68
2021/12/06 14:00:42;;;;;;;33.70;11.27;;;;;;;;;;5128628;28;20207;-66
2021/12/06 14:03:12;;;;;;;35.13;10.82;;;;;;;;;;5128772;28;20600;-66
2021/12/06 14:05:45;;;;;;;28.80;8.32;;;;;;;;;;5128447;28;20796;-66
2021/12/06 14:08:16;;;;;;;30.80;9.38;;;;;;;;;;5128589;28;20214;-68
2021/12/06 14:10:45;;;;;;;27.10;9.65;;;;;;;;;;5128559;28;20206;-67
2021/12/06 14:13:13;;;;;;;32.63;9.65;;;;;;;;;;5127912;28;20220;-66
2021/12/06 14:15:48;;;;;;;43.20;12.65;;;;;;;;;;5127923;28;20287;-66
2021/12/06 14:18:17;;;;;;;33.72;9.63;;;;;;;;;;5127722;28;20210;-67
2021/12/06 14:20:48;;;;;;;26.65;7.72;;;;;;;;;;5127467;28;20516;-67
2021/12/06 14:23:16;;;;;;;29.25;10.25;;;;;;;;;;5127774;28;20206;-68
2021/12/06 14:25:50;;;;;;;44.75;13.48;;;;;;;;;;5127632;28;20213;-67
2021/12/06 14:28:18;;;;;;;30.63;9.60;;;;;;;;;;5127886;28;20202;-67
2021/12/06 14:30:46;;;;;;;38.25;12.00;;;;;;;;;;5127480;28;20351;-66
2021/12/06 14:33:14;;;;;;;36.60;13.02;;;;;;;;;;5127377;28;20231;-67
2021/12/06 14:35:43;;;;;;;48.67;14.70;;;;;;;;;;5126634;28;20203;-67
2021/12/06 14:38:11;;;;;;;32.75;9.93;;;;;;;;;;5127750;28;20199;-66
2021/12/06 14:40:39;;;;;;;53.45;20.70;;;;;;;;;;5127706;28;20242;-67